createdAt,value
2018-02-11T00:01:21.878Z,12.80
2018-02-11T00:03:50.168Z,13.17
2018-02-11T00:06:18.634Z,13.57
2018-02-11T00:08:46.994Z,13.07
2018-02-11T00:11:15.287Z,13.27
2018-02-11T00:13:43.605Z,11.60
2018-02-11T00:16:11.942Z,13.07
2018-02-11T00:18:40.268Z,12.07
2018-02-11T00:21:08.546Z,12.80
2018-02-11T00:23:36.812Z,12.93
2018-02-11T00:26:05.117Z,12.57
2018-02-11T00:28:33.406Z,11.40
2018-02-11T00:31:01.711Z,11.40
2018-02-11T00:33:29.990Z,11.27
2018-02-11T00:35:59.065Z,10.50
2018-02-11T00:38:27.341Z,10.03
2018-02-11T00:40:55.650Z,8.93
2018-02-11T00:43:23.922Z,10.57
2018-02-11T00:45:52.206Z,10.13
2018-02-11T00:48:20.495Z,10.10
2018-02-11T00:50:48.769Z,9.43
2018-02-11T00:53:17.089Z,10.07
2018-02-11T00:55:45.574Z,10.07
2018-02-11T00:58:13.842Z,10.27
2018-02-11T01:00:42.139Z,9.63
2018-02-11T01:03:10.426Z,10.13
2018-02-11T01:05:38.707Z,9.93
2018-02-11T01:08:07.012Z,10.47
2018-02-11T01:10:35.325Z,10.10
2018-02-11T01:13:03.627Z,10.77
2018-02-11T01:15:31.957Z,11.70
2018-02-11T01:18:00.378Z,10.93
2018-02-11T01:20:28.700Z,10.77
2018-02-11T01:22:56.997Z,11.33
2018-02-11T01:25:25.313Z,10.87
2018-02-11T01:27:53.578Z,10.33
2018-02-11T01:30:21.872Z,11.17
2018-02-11T01:32:50.154Z,10.43
2018-02-11T01:35:18.436Z,10.57
2018-02-11T01:37:46.718Z,10.30
2018-02-11T01:40:15.006Z,9.90
2018-02-11T01:42:43.324Z,9.47
2018-02-11T01:45:11.622Z,9.70
2018-02-11T01:47:39.894Z,8.77
2018-02-11T01:50:18.873Z,9.40
2018-02-11T01:52:47.159Z,8.73
2018-02-11T01:55:15.219Z,8.93
2018-02-11T01:57:43.533Z,7.57
2018-02-11T02:00:12.007Z,7.90
2018-02-11T02:02:40.260Z,8.27
2018-02-11T02:05:08.559Z,9.17
2018-02-11T02:07:36.500Z,8.60
2018-02-11T02:10:04.795Z,8.87
2018-02-11T02:12:33.071Z,8.87
2018-02-11T02:15:01.384Z,8.73
2018-02-11T02:17:29.664Z,7.80
2018-02-11T02:19:57.621Z,8.40
2018-02-11T02:22:25.891Z,8.67
2018-02-11T02:24:54.174Z,8.13
2018-02-11T02:27:22.449Z,8.10
2018-02-11T02:29:50.746Z,7.47
2018-02-11T02:32:19.031Z,8.53
2018-02-11T02:34:47.321Z,8.33
2018-02-11T02:37:15.615Z,8.87
2018-02-11T02:39:43.872Z,8.67
2018-02-11T02:42:12.152Z,7.40
2018-02-11T02:44:40.468Z,7.60
2018-02-11T02:47:08.773Z,8.77
2018-02-11T02:49:37.039Z,8.00
2018-02-11T02:52:04.977Z,7.50
2018-02-11T02:54:33.253Z,7.17
2018-02-11T02:57:01.564Z,6.70
2018-02-11T02:59:30.818Z,7.10
2018-02-11T03:01:59.086Z,6.27
2018-02-11T03:04:27.039Z,6.37
2018-02-11T03:06:55.318Z,6.43
2018-02-11T03:09:23.599Z,6.40
2018-02-11T03:11:51.898Z,6.23
2018-02-11T03:14:20.180Z,6.27
2018-02-11T03:16:48.494Z,4.83
2018-02-11T03:19:16.782Z,5.30
2018-02-11T03:21:45.841Z,5.30
2018-02-11T03:24:14.151Z,4.73
2018-02-11T03:26:42.450Z,4.47
2018-02-11T03:29:10.726Z,4.20
2018-02-11T03:31:39.002Z,4.50
2018-02-11T03:34:07.297Z,4.27
2018-02-11T03:36:35.592Z,4.40
2018-02-11T03:39:03.108Z,4.17
2018-02-11T03:41:31.400Z,4.37
2018-02-11T03:43:59.939Z,4.50
2018-02-11T03:46:28.379Z,4.23
2018-02-11T03:48:56.668Z,4.67
2018-02-11T03:51:24.986Z,4.70
2018-02-11T03:53:53.268Z,5.20
2018-02-11T03:56:21.561Z,5.10
2018-02-11T03:58:49.834Z,5.23
2018-02-11T04:01:18.135Z,5.23
2018-02-11T04:03:46.449Z,5.10
2018-02-11T04:06:14.754Z,5.43
2018-02-11T04:08:43.806Z,6.23
2018-02-11T04:11:12.094Z,6.50
2018-02-11T04:13:40.048Z,6.43
2018-02-11T04:16:08.010Z,6.33
2018-02-11T04:18:36.291Z,6.37
2018-02-11T04:21:04.576Z,6.00
2018-02-11T04:23:32.871Z,6.83
2018-02-11T04:26:01.168Z,6.10
2018-02-11T04:28:29.432Z,5.83
2018-02-11T04:30:57.722Z,5.70
2018-02-11T04:33:26.023Z,5.83
2018-02-11T04:35:55.813Z,6.00
2018-02-11T04:38:24.109Z,5.73
2018-02-11T04:40:52.387Z,5.83
2018-02-11T04:43:20.680Z,5.83
2018-02-11T04:45:48.978Z,6.33
2018-02-11T04:48:17.282Z,6.77
2018-02-11T04:50:45.573Z,5.77
2018-02-11T04:53:13.848Z,7.27
2018-02-11T04:55:42.134Z,8.17
2018-02-11T04:58:10.413Z,7.93
2018-02-11T05:00:38.726Z,8.43
2018-02-11T05:03:07.026Z,9.40
2018-02-11T05:05:35.335Z,8.83
2018-02-11T05:08:04.402Z,9.43
2018-02-11T05:10:32.685Z,10.50
2018-02-11T05:13:00.989Z,10.90
2018-02-11T05:15:29.313Z,11.17
2018-02-11T05:17:57.807Z,11.20
2018-02-11T05:20:26.240Z,12.60
2018-02-11T05:22:54.510Z,12.87
2018-02-11T05:25:22.786Z,12.73
2018-02-11T05:27:51.058Z,13.70
2018-02-11T05:30:19.323Z,13.67
2018-02-11T05:32:47.577Z,13.17
2018-02-11T05:35:15.869Z,12.87
2018-02-11T05:37:44.121Z,8.87
2018-02-11T05:40:12.412Z,11.60
2018-02-11T05:42:40.704Z,11.80
2018-02-11T05:45:08.990Z,11.17
2018-02-11T05:47:37.274Z,9.00
2018-02-11T05:50:05.622Z,9.93
2018-02-11T05:52:34.041Z,9.03
2018-02-11T05:55:02.293Z,6.77
2018-02-11T05:57:30.575Z,8.33
2018-02-11T05:59:58.842Z,7.77
2018-02-11T06:02:27.172Z,7.90
2018-02-11T06:04:55.440Z,7.30
2018-02-11T06:07:23.717Z,6.40
2018-02-11T06:09:51.969Z,4.60
2018-02-11T06:12:20.244Z,5.30
2018-02-11T06:14:48.534Z,4.30
2018-02-11T06:17:16.826Z,2.97
2018-02-11T06:19:45.094Z,2.60
2018-02-11T06:22:13.372Z,2.90
2018-02-11T06:24:41.647Z,2.60
2018-02-11T06:27:09.931Z,2.37
2018-02-11T06:29:38.206Z,2.90
2018-02-11T06:32:06.493Z,2.63
2018-02-11T06:34:34.782Z,2.20
2018-02-11T06:37:03.058Z,2.20
2018-02-11T06:39:31.363Z,3.00
2018-02-11T06:41:59.681Z,2.23
2018-02-11T06:44:27.989Z,2.13
2018-02-11T06:46:57.176Z,2.17
2018-02-11T06:49:25.478Z,2.60
2018-02-11T06:51:53.786Z,2.17
2018-02-11T06:54:22.087Z,2.87
2018-02-11T06:56:50.394Z,2.47
2018-02-11T06:59:18.679Z,2.70
2018-02-11T07:01:46.975Z,2.70
2018-02-11T07:04:15.267Z,3.30
2018-02-11T07:06:43.552Z,2.33
2018-02-11T07:09:11.840Z,2.87
2018-02-11T07:11:40.126Z,2.60
2018-02-11T07:14:08.870Z,2.47
2018-02-11T07:16:37.141Z,2.83
2018-02-11T07:19:05.433Z,2.63
2018-02-11T07:21:33.709Z,3.27
2018-02-11T07:24:02.021Z,2.70
2018-02-11T07:26:30.325Z,2.80
2018-02-11T07:28:58.619Z,2.70
2018-02-11T07:31:26.894Z,2.67
2018-02-11T07:33:55.388Z,2.97
2018-02-11T07:36:23.680Z,1.30
2018-02-11T07:38:52.759Z,2.63
2018-02-11T07:41:21.830Z,2.03
2018-02-11T07:43:50.132Z,2.17
2018-02-11T07:46:18.434Z,2.77
2018-02-11T07:48:46.718Z,1.07
2018-02-11T07:51:15.042Z,2.40
2018-02-11T07:53:43.336Z,1.60
2018-02-11T07:56:11.635Z,2.47
2018-02-11T07:58:39.941Z,1.80
2018-02-11T08:01:08.973Z,1.90
2018-02-11T08:03:37.284Z,1.60
2018-02-11T08:06:05.554Z,1.83
2018-02-11T08:08:33.840Z,1.70
2018-02-11T08:11:02.130Z,1.83
2018-02-11T08:13:30.423Z,1.87
2018-02-11T08:15:58.716Z,1.83
2018-02-11T08:18:26.979Z,1.77
2018-02-11T08:20:55.271Z,2.13
2018-02-11T08:23:23.550Z,2.00
2018-02-11T08:25:51.844Z,2.50
2018-02-11T08:28:20.112Z,2.07
2018-02-11T08:30:48.403Z,1.73
2018-02-11T08:33:16.653Z,2.00
2018-02-11T08:35:44.947Z,1.60
2018-02-11T08:38:13.241Z,2.03
2018-02-11T08:40:41.552Z,2.03
2018-02-11T08:43:09.850Z,2.07
2018-02-11T08:45:38.140Z,2.13
2018-02-11T08:48:06.560Z,1.67
2018-02-11T08:50:34.918Z,1.63
2018-02-11T08:53:03.982Z,1.63
2018-02-11T08:55:32.291Z,0.97
2018-02-11T08:58:00.412Z,2.03
2018-02-11T09:00:28.919Z,2.07
2018-02-11T09:02:57.332Z,1.60
2018-02-11T09:05:26.464Z,1.63
2018-02-11T09:07:54.798Z,2.00
2018-02-11T09:17:07.530Z,1.00
2018-02-11T09:19:35.809Z,2.17
2018-02-11T09:22:03.942Z,2.30
2018-02-11T09:24:32.260Z,1.80
2018-02-11T09:27:00.582Z,1.80
2018-02-11T09:29:28.907Z,1.60
2018-02-11T09:31:57.245Z,1.83
2018-02-11T09:34:25.593Z,1.70
2018-02-11T09:36:53.894Z,1.87
2018-02-11T09:39:22.198Z,2.07
2018-02-11T09:41:50.480Z,2.00
2018-02-11T09:44:18.748Z,2.20
2018-02-11T09:46:47.130Z,2.63
2018-02-11T09:49:15.518Z,1.70
2018-02-11T09:51:43.794Z,1.83
2018-02-11T09:54:12.100Z,2.20
2018-02-11T09:56:40.341Z,2.17
2018-02-11T09:59:08.465Z,1.80
2018-02-11T10:01:36.750Z,2.00
2018-02-11T10:04:05.059Z,1.90
2018-02-11T10:06:33.338Z,2.73
2018-02-11T10:09:01.664Z,1.80
2018-02-11T10:11:29.946Z,2.40
2018-02-11T10:13:58.235Z,2.57
2018-02-11T10:16:26.531Z,2.70
2018-02-11T10:24:42.382Z,2.00
2018-02-11T10:27:10.676Z,2.30
2018-02-11T10:29:38.962Z,1.87
2018-02-11T10:32:07.258Z,3.03
2018-02-11T10:34:35.565Z,1.90
2018-02-11T10:37:03.849Z,1.80
2018-02-11T10:39:32.148Z,2.90
2018-02-11T10:42:00.449Z,2.23
2018-02-11T10:44:28.790Z,2.20
2018-02-11T10:46:57.079Z,1.87
2018-02-11T10:49:25.386Z,2.50
2018-02-11T10:51:53.680Z,2.10
2018-02-11T10:54:22.041Z,2.60
2018-02-11T10:56:50.570Z,2.40
2018-02-11T10:59:18.923Z,2.07
2018-02-11T11:01:47.225Z,1.50
2018-02-11T11:04:15.597Z,2.27
2018-02-11T11:06:43.892Z,1.57
2018-02-11T11:09:12.173Z,1.70
2018-02-11T11:11:40.478Z,1.90
2018-02-11T11:14:08.777Z,2.00
2018-02-11T11:16:37.143Z,1.40
2018-02-11T11:19:05.467Z,2.23
2018-02-11T11:21:33.740Z,2.77
2018-02-11T11:24:02.041Z,2.40
2018-02-11T11:26:30.294Z,1.70
2018-02-11T11:28:59.377Z,2.57
2018-02-11T11:31:27.672Z,2.57
2018-02-11T11:33:55.977Z,2.07
2018-02-11T11:36:24.374Z,1.60
2018-02-11T11:38:52.716Z,2.70
2018-02-11T11:41:21.147Z,1.80
2018-02-11T11:43:49.613Z,1.67
2018-02-11T11:46:17.898Z,2.17
2018-02-11T11:48:46.170Z,1.53
2018-02-11T11:51:14.505Z,1.30
2018-02-11T11:53:42.855Z,1.37
2018-02-11T11:56:11.151Z,1.37
2018-02-11T11:58:39.505Z,1.93
2018-02-11T12:01:07.875Z,1.60
2018-02-11T12:03:36.217Z,1.43
2018-02-11T12:06:08.129Z,2.23
2018-02-11T12:08:36.434Z,2.10
2018-02-11T12:11:04.719Z,1.57
2018-02-11T12:13:33.803Z,2.10
2018-02-11T12:16:02.084Z,1.43
2018-02-11T12:18:30.399Z,1.47
2018-02-11T12:20:58.726Z,2.03
2018-02-11T12:23:27.129Z,1.30
2018-02-11T12:25:55.520Z,1.40
2018-02-11T12:28:23.882Z,1.57
2018-02-11T12:30:52.171Z,1.67
2018-02-11T12:33:20.464Z,1.67
2018-02-11T12:35:48.783Z,1.50
2018-02-11T12:38:17.098Z,1.50
2018-02-11T12:40:45.199Z,1.23
2018-02-11T12:43:13.510Z,1.57
2018-02-11T12:45:41.819Z,1.57
2018-02-11T12:48:10.202Z,1.20
2018-02-11T12:50:38.523Z,1.73
2018-02-11T12:53:06.826Z,2.50
2018-02-11T12:55:35.099Z,2.37
2018-02-11T12:58:03.410Z,1.57
2018-02-11T13:00:31.727Z,1.80
2018-02-11T13:03:00.811Z,1.80
2018-02-11T13:05:29.104Z,1.63
2018-02-11T13:07:57.488Z,1.63
2018-02-11T13:10:26.030Z,1.50
2018-02-11T13:12:54.346Z,1.97
2018-02-11T13:15:23.416Z,1.40
2018-02-11T13:17:53.292Z,1.60
2018-02-11T13:20:21.566Z,1.60
2018-02-11T13:22:49.848Z,1.27
2018-02-11T13:25:18.368Z,1.60
2018-02-11T13:27:46.678Z,1.70
2018-02-11T13:30:14.985Z,1.43
2018-02-11T13:32:43.383Z,1.53
2018-02-11T13:35:12.270Z,1.83
2018-02-11T13:37:41.219Z,1.70
2018-02-11T13:40:09.564Z,1.90
2018-02-11T13:42:37.539Z,1.70
2018-02-11T13:45:05.817Z,2.10
2018-02-11T13:50:26.914Z,1.73
2018-02-11T13:52:55.228Z,1.60
2018-02-11T13:55:23.511Z,1.70
2018-02-11T13:57:51.844Z,1.33
2018-02-11T14:00:20.168Z,2.37
2018-02-11T14:02:48.509Z,1.83
2018-02-11T14:05:17.590Z,1.77
2018-02-11T14:07:46.703Z,1.50
2018-02-11T14:10:15.025Z,1.43
2018-02-11T14:12:43.398Z,1.50
2018-02-11T14:15:11.726Z,1.63
2018-02-11T14:17:40.035Z,2.07
2018-02-11T14:20:08.648Z,1.73
2018-02-11T14:22:37.832Z,1.67
2018-02-11T14:25:06.261Z,1.70
2018-02-11T14:27:34.596Z,1.70
2018-02-11T14:30:08.338Z,1.87
2018-02-11T14:32:36.638Z,1.30
2018-02-11T14:35:04.707Z,0.87
2018-02-11T14:37:33.115Z,1.00
2018-02-11T14:40:01.679Z,1.50
2018-02-11T14:42:29.958Z,1.73
2018-02-11T14:44:58.238Z,1.40
2018-02-11T14:47:26.542Z,1.50
2018-02-11T14:49:54.840Z,1.67
2018-02-11T14:52:23.162Z,1.57
2018-02-11T14:54:52.232Z,1.07
2018-02-11T14:57:20.545Z,1.23
2018-02-11T14:59:50.178Z,1.77
2018-02-11T15:02:18.476Z,1.80
2018-02-11T15:04:46.822Z,1.00
2018-02-11T15:07:15.165Z,1.33
2018-02-11T15:09:43.470Z,1.70
2018-02-11T15:12:12.535Z,1.30
2018-02-11T15:14:40.899Z,1.17
2018-02-11T15:17:09.219Z,1.10
2018-02-11T15:19:37.548Z,1.27
2018-02-11T15:22:06.032Z,1.80
2018-02-11T15:24:34.401Z,0.97
2018-02-11T15:27:03.524Z,1.43
2018-02-11T15:32:28.546Z,1.40
2018-02-11T15:34:57.769Z,0.93
2018-02-11T15:37:26.071Z,1.13
2018-02-11T15:39:54.379Z,1.60
2018-02-11T15:42:22.711Z,1.50
2018-02-11T15:44:51.036Z,1.63
2018-02-11T15:47:20.098Z,1.13
2018-02-11T15:49:48.216Z,1.17
2018-02-11T15:52:17.287Z,1.77
2018-02-11T15:54:46.068Z,1.70
2018-02-11T15:57:14.379Z,1.23
2018-02-11T15:59:42.705Z,1.03
2018-02-11T16:02:11.010Z,1.60
2018-02-11T16:04:39.328Z,1.47
2018-02-11T16:07:07.640Z,1.47
2018-02-11T16:09:35.972Z,1.80
2018-02-11T16:12:04.282Z,2.03
2018-02-11T16:14:33.380Z,1.10
2018-02-11T16:17:01.711Z,2.00
2018-02-11T16:19:30.016Z,1.80
2018-02-11T16:21:58.339Z,1.73
2018-02-11T16:24:26.754Z,1.97
2018-02-11T16:26:55.148Z,1.83
2018-02-11T16:29:25.436Z,1.67
2018-02-11T16:31:53.753Z,1.20
2018-02-11T16:34:22.084Z,1.40
2018-02-11T16:36:50.440Z,1.97
2018-02-11T16:39:18.755Z,1.97
2018-02-11T16:41:47.901Z,1.80
2018-02-11T16:44:16.209Z,1.63
2018-02-11T16:46:45.299Z,1.20
2018-02-11T16:49:13.608Z,2.13
2018-02-11T16:51:41.930Z,1.50
2018-02-11T16:54:10.227Z,1.43
2018-02-11T16:56:38.570Z,1.63
2018-02-11T16:59:06.893Z,1.90
2018-02-11T17:01:35.231Z,1.33
2018-02-11T17:04:03.443Z,1.17
2018-02-11T17:06:31.791Z,1.00
2018-02-11T17:11:54.164Z,1.10
2018-02-11T17:14:22.530Z,1.23
2018-02-11T17:16:50.837Z,1.50
2018-02-11T17:19:19.124Z,2.17
2018-02-11T17:21:47.426Z,1.30
2018-02-11T17:24:15.723Z,2.30
2018-02-11T17:26:44.024Z,1.67
2018-02-11T17:29:13.152Z,1.70
2018-02-11T17:31:41.465Z,1.97
2018-02-11T17:34:09.753Z,2.33
2018-02-11T17:36:38.062Z,1.17
2018-02-11T17:39:07.177Z,1.83
2018-02-11T17:41:35.452Z,1.37
2018-02-11T17:44:05.147Z,1.87
2018-02-11T17:46:33.624Z,1.30
2018-02-11T17:49:01.959Z,1.27
2018-02-11T17:51:30.266Z,1.60
2018-02-11T17:53:59.864Z,1.40
2018-02-11T17:56:28.160Z,2.33
2018-02-11T17:58:56.452Z,2.00
2018-02-11T18:01:30.106Z,11.30
2018-02-11T18:03:58.397Z,4.20
2018-02-11T18:06:26.724Z,2.73
2018-02-11T18:08:55.039Z,2.53
2018-02-11T18:11:24.093Z,1.83
2018-02-11T18:13:52.519Z,1.73
2018-02-11T18:16:20.812Z,2.20
2018-02-11T18:18:49.132Z,2.07
2018-02-11T18:21:17.278Z,2.00
2018-02-11T18:23:45.575Z,2.27
2018-02-11T18:26:13.904Z,1.90
2018-02-11T18:28:42.035Z,2.37
2018-02-11T18:31:10.331Z,2.40
2018-02-11T18:33:38.718Z,2.03
2018-02-11T18:36:07.050Z,1.83
2018-02-11T18:38:35.503Z,1.80
2018-02-11T18:41:04.061Z,1.90
2018-02-11T18:43:32.855Z,1.90
2018-02-11T18:46:01.123Z,2.60
2018-02-11T18:48:29.428Z,1.77
2018-02-11T18:50:58.594Z,1.93
2018-02-11T18:53:26.881Z,2.10
2018-02-11T18:55:55.157Z,2.03
2018-02-11T18:58:23.461Z,2.10
2018-02-11T19:00:51.838Z,1.60
2018-02-11T19:03:20.581Z,1.90
2018-02-11T19:05:48.939Z,2.50
2018-02-11T19:08:17.245Z,2.37
2018-02-11T19:10:45.546Z,2.60
2018-02-11T19:13:13.860Z,3.00
2018-02-11T19:15:42.163Z,4.00
2018-02-11T19:18:10.445Z,3.27
2018-02-11T19:20:38.720Z,1.67
2018-02-11T19:23:07.019Z,2.43
2018-02-11T19:25:35.301Z,2.50
2018-02-11T19:28:03.581Z,1.60
2018-02-11T19:30:31.862Z,1.70
2018-02-11T19:33:00.222Z,1.93
2018-02-11T19:35:28.511Z,1.97
2018-02-11T19:37:56.811Z,1.80
2018-02-11T19:40:25.077Z,1.93
2018-02-11T19:42:53.189Z,2.10
2018-02-11T19:45:21.523Z,1.70
2018-02-11T19:47:49.809Z,2.10
2018-02-11T19:50:18.100Z,2.47
2018-02-11T19:52:46.389Z,1.93
2018-02-11T19:55:14.710Z,2.20
2018-02-11T19:57:43.793Z,2.70
2018-02-11T20:00:12.095Z,2.10
2018-02-11T20:02:40.426Z,2.27
2018-02-11T20:05:08.692Z,3.33
2018-02-11T20:07:36.998Z,2.13
2018-02-11T20:10:05.446Z,2.50
2018-02-11T20:12:33.767Z,2.20
2018-02-11T20:15:02.070Z,1.60
2018-02-11T20:17:30.260Z,1.60
2018-02-11T20:19:58.587Z,2.50
2018-02-11T20:22:27.853Z,2.03
2018-02-11T20:24:56.172Z,2.53
2018-02-11T20:27:24.465Z,2.57
2018-02-11T20:29:52.782Z,3.13
2018-02-11T20:32:21.865Z,1.67
2018-02-11T20:34:50.171Z,1.87
2018-02-11T20:37:18.487Z,2.67
2018-02-11T20:39:46.811Z,2.37
2018-02-11T20:42:15.165Z,2.73
2018-02-11T20:44:43.485Z,2.33
2018-02-11T20:47:11.787Z,2.27
2018-02-11T20:49:40.141Z,2.17
2018-02-11T20:52:08.461Z,1.87
2018-02-11T20:54:36.862Z,1.77
2018-02-11T20:57:05.199Z,1.67
2018-02-11T20:59:33.491Z,2.13
2018-02-11T21:02:03.664Z,2.03
2018-02-11T21:04:31.974Z,2.37
2018-02-11T21:07:00.289Z,1.60
2018-02-11T21:09:28.594Z,2.30
2018-02-11T21:11:56.965Z,1.47
2018-02-11T21:14:25.425Z,2.13
2018-02-11T21:16:53.789Z,1.40
2018-02-11T21:19:22.104Z,1.93
2018-02-11T21:21:50.438Z,2.43
2018-02-11T21:24:18.785Z,2.40
2018-02-11T21:26:47.102Z,1.80
2018-02-11T21:29:15.464Z,1.97
2018-02-11T21:31:43.938Z,1.97
2018-02-11T21:34:12.346Z,2.57
2018-02-11T21:36:40.727Z,2.63
2018-02-11T21:39:09.027Z,2.23
2018-02-11T21:41:37.322Z,2.43
2018-02-11T21:44:05.699Z,2.80
2018-02-11T21:46:34.040Z,2.27
2018-02-11T21:49:02.812Z,2.00
2018-02-11T21:51:31.134Z,2.20
2018-02-11T21:53:59.411Z,1.63
2018-02-11T21:56:27.745Z,2.80
2018-02-11T21:58:56.085Z,2.60
2018-02-11T22:01:24.366Z,1.70
2018-02-11T22:03:52.695Z,2.30
2018-02-11T22:06:21.768Z,1.83
2018-02-11T22:08:50.065Z,1.73
2018-02-11T22:11:18.395Z,2.00
2018-02-11T22:13:46.690Z,1.73
2018-02-11T22:16:14.988Z,1.43
2018-02-11T22:18:43.318Z,0.70
2018-02-11T22:21:11.623Z,1.00
2018-02-11T22:23:39.909Z,1.07
2018-02-11T22:26:08.213Z,0.87
2018-02-11T22:28:36.532Z,0.80
2018-02-11T22:31:04.829Z,1.00
2018-02-11T22:33:33.140Z,1.10
2018-02-11T22:36:01.445Z,1.07
2018-02-11T22:38:29.747Z,1.23
2018-02-11T22:40:58.339Z,1.40
2018-02-11T22:43:26.616Z,1.83
2018-02-11T22:45:54.974Z,2.57
2018-02-11T22:48:23.269Z,2.83
2018-02-11T22:50:51.579Z,3.03
2018-02-11T22:53:19.871Z,2.50
2018-02-11T22:55:48.145Z,2.70
2018-02-11T22:58:16.453Z,2.90
2018-02-11T23:00:44.754Z,2.23
2018-02-11T23:03:13.045Z,2.60
2018-02-11T23:05:41.365Z,2.83
2018-02-11T23:08:09.689Z,2.50
2018-02-11T23:10:37.988Z,1.67
2018-02-11T23:13:06.275Z,2.47
2018-02-11T23:15:34.590Z,2.60
2018-02-11T23:18:02.885Z,3.30
2018-02-11T23:20:31.195Z,1.97
2018-02-11T23:22:59.477Z,2.30
2018-02-11T23:25:27.749Z,2.13
2018-02-11T23:27:56.036Z,1.93
2018-02-11T23:30:24.326Z,2.53
2018-02-11T23:32:52.616Z,2.43
2018-02-11T23:35:20.886Z,2.10
2018-02-11T23:37:49.196Z,2.40
2018-02-11T23:40:17.485Z,2.33
2018-02-11T23:42:45.787Z,2.00
2018-02-11T23:45:14.816Z,2.00
2018-02-11T23:47:43.120Z,2.70
2018-02-11T23:50:11.402Z,2.37
2018-02-11T23:52:39.742Z,2.57
2018-02-11T23:55:08.033Z,2.60
2018-02-11T23:57:36.303Z,2.57
